createdAt,value
2017-10-28T00:00:59.025Z,2.43
2017-10-28T00:03:26.608Z,2.03
2017-10-28T00:05:54.243Z,2.20
2017-10-28T00:08:22.618Z,2.07
2017-10-28T00:10:50.963Z,1.97
2017-10-28T00:13:18.592Z,1.90
2017-10-28T00:15:46.160Z,1.60
2017-10-28T00:18:13.810Z,2.50
2017-10-28T00:20:42.211Z,1.70
2017-10-28T00:23:09.800Z,2.07
2017-10-28T00:25:37.406Z,1.80
2017-10-28T00:28:05.071Z,1.60
2017-10-28T00:30:38.330Z,2.80
2017-10-28T00:33:11.562Z,2.40
2017-10-28T00:35:44.624Z,2.10
2017-10-28T00:38:13.094Z,3.63
2017-10-28T00:40:40.724Z,3.10
2017-10-28T00:43:08.314Z,3.50
2017-10-28T00:45:35.946Z,3.57
2017-10-28T00:48:03.554Z,3.70
2017-10-28T00:50:31.951Z,4.30
2017-10-28T00:52:59.541Z,3.90
2017-10-28T00:55:27.211Z,5.10
2017-10-28T00:57:54.781Z,5.20
2017-10-28T01:00:22.427Z,6.50
2017-10-28T01:02:50.043Z,5.70
2017-10-28T01:05:18.431Z,5.77
2017-10-28T01:07:46.121Z,6.40
2017-10-28T01:10:13.738Z,6.57
2017-10-28T01:12:41.346Z,7.30
2017-10-28T01:15:08.993Z,7.17
2017-10-28T01:17:36.619Z,7.40
2017-10-28T01:20:04.190Z,8.70
2017-10-28T01:22:32.579Z,9.13
2017-10-28T01:25:00.935Z,8.03
2017-10-28T01:27:28.554Z,9.00
2017-10-28T01:29:56.143Z,9.57
2017-10-28T01:32:23.750Z,9.03
2017-10-28T01:34:52.109Z,8.87
2017-10-28T01:37:19.752Z,10.40
2017-10-28T01:39:47.370Z,8.80
2017-10-28T01:42:14.948Z,10.00
2017-10-28T01:44:43.364Z,8.90
2017-10-28T01:47:10.962Z,9.37
2017-10-28T01:49:39.359Z,9.07
2017-10-28T01:52:06.957Z,9.33
2017-10-28T01:54:34.584Z,8.90
2017-10-28T01:57:02.239Z,7.87
2017-10-28T01:59:29.806Z,8.40
2017-10-28T02:01:57.419Z,8.20
2017-10-28T02:04:24.987Z,7.87
2017-10-28T02:06:52.579Z,9.27
2017-10-28T02:09:20.184Z,7.90
2017-10-28T02:11:47.784Z,8.10
2017-10-28T02:14:16.143Z,7.40
2017-10-28T02:16:43.750Z,7.80
2017-10-28T02:19:11.342Z,7.63
2017-10-28T02:21:38.936Z,6.80
2017-10-28T02:24:06.489Z,6.70
2017-10-28T02:26:34.086Z,7.37
2017-10-28T02:29:01.647Z,6.50
2017-10-28T02:31:29.274Z,5.53
2017-10-28T02:33:56.897Z,5.23
2017-10-28T02:36:25.263Z,5.40
2017-10-28T02:38:52.857Z,4.73
2017-10-28T02:41:20.498Z,5.27
2017-10-28T02:43:48.124Z,4.30
2017-10-28T02:46:16.507Z,5.40
2017-10-28T02:48:44.106Z,6.60
2017-10-28T02:51:11.666Z,5.33
2017-10-28T02:53:39.631Z,6.27
2017-10-28T02:56:07.209Z,5.87
2017-10-28T02:58:35.690Z,5.30
2017-10-28T03:01:03.258Z,6.03
2017-10-28T03:03:30.892Z,5.70
2017-10-28T03:05:59.287Z,6.80
2017-10-28T03:08:26.929Z,5.77
2017-10-28T03:10:54.517Z,5.60
2017-10-28T03:13:22.123Z,5.47
2017-10-28T03:15:50.566Z,6.77
2017-10-28T03:18:18.154Z,6.33
2017-10-28T03:20:46.533Z,6.70
2017-10-28T03:23:14.893Z,6.00
2017-10-28T03:25:42.591Z,6.10
2017-10-28T03:28:10.932Z,7.00
2017-10-28T03:30:38.563Z,5.47
2017-10-28T03:33:06.136Z,5.60
2017-10-28T03:35:33.920Z,5.90
2017-10-28T03:38:01.530Z,5.77
2017-10-28T03:40:29.090Z,5.63
2017-10-28T03:42:56.716Z,5.93
2017-10-28T03:45:24.298Z,5.70
2017-10-28T03:47:52.687Z,4.97
2017-10-28T03:50:20.260Z,5.00
2017-10-28T03:52:47.891Z,5.70
2017-10-28T03:55:16.227Z,5.10
2017-10-28T03:57:43.817Z,4.93
2017-10-28T04:00:11.412Z,5.10
2017-10-28T04:02:39.019Z,5.27
2017-10-28T04:05:06.659Z,5.83
2017-10-28T04:07:34.250Z,5.73
2017-10-28T04:10:01.859Z,5.37
2017-10-28T04:12:29.440Z,5.63
2017-10-28T04:14:57.022Z,6.80
2017-10-28T04:17:24.688Z,6.17
2017-10-28T04:19:52.294Z,7.20
2017-10-28T04:22:20.646Z,6.17
2017-10-28T04:24:48.236Z,6.00
2017-10-28T04:27:16.639Z,6.93
2017-10-28T04:29:44.189Z,6.30
2017-10-28T04:32:11.788Z,7.43
2017-10-28T04:34:40.334Z,7.50
2017-10-28T04:37:07.956Z,6.80
2017-10-28T04:39:35.547Z,6.70
2017-10-28T04:42:03.895Z,6.60
2017-10-28T04:44:31.481Z,6.17
2017-10-28T04:46:59.879Z,6.30
2017-10-28T04:49:27.466Z,7.10
2017-10-28T04:51:55.079Z,6.90
2017-10-28T04:54:23.422Z,6.13
2017-10-28T04:56:51.015Z,6.53
2017-10-28T04:59:18.610Z,6.40
2017-10-28T05:01:46.234Z,6.60
2017-10-28T05:04:13.970Z,7.07
2017-10-28T05:06:41.547Z,6.43
2017-10-28T05:09:09.150Z,6.43
2017-10-28T05:11:36.730Z,6.67
2017-10-28T05:14:05.101Z,7.80
2017-10-28T05:16:32.709Z,8.10
2017-10-28T05:19:00.350Z,8.63
2017-10-28T05:21:27.963Z,11.70
2017-10-28T05:23:56.311Z,9.87
2017-10-28T05:26:23.956Z,7.67
2017-10-28T05:28:52.367Z,9.23
2017-10-28T05:31:19.979Z,7.30
2017-10-28T05:33:47.550Z,6.50
2017-10-28T05:36:15.142Z,7.67
2017-10-28T05:38:42.723Z,7.37
2017-10-28T05:41:11.102Z,6.83
2017-10-28T05:43:39.565Z,7.90
2017-10-28T05:46:07.165Z,8.33
2017-10-28T05:48:34.725Z,7.97
2017-10-28T05:51:02.339Z,8.27
2017-10-28T05:53:30.116Z,10.47
2017-10-28T05:55:57.672Z,8.53
2017-10-28T05:58:25.286Z,8.93
2017-10-28T06:00:52.839Z,8.67
2017-10-28T06:03:20.439Z,8.83
2017-10-28T06:05:48.058Z,9.10
2017-10-28T06:08:15.672Z,9.90
2017-10-28T06:10:43.272Z,9.03
2017-10-28T06:13:11.644Z,9.90
2017-10-28T06:15:40.220Z,9.80
2017-10-28T06:18:07.799Z,10.67
2017-10-28T06:20:35.459Z,10.50
2017-10-28T06:23:03.828Z,10.80
2017-10-28T06:25:32.256Z,11.57
2017-10-28T06:27:59.832Z,12.03
2017-10-28T06:30:27.511Z,12.43
2017-10-28T06:32:55.122Z,11.90
2017-10-28T06:35:22.716Z,11.07
2017-10-28T06:37:50.336Z,12.87
2017-10-28T06:40:17.953Z,12.73
2017-10-28T06:42:45.557Z,12.30
2017-10-28T06:45:14.298Z,12.10
2017-10-28T06:47:41.922Z,13.37
2017-10-28T06:50:09.526Z,12.60
2017-10-28T06:52:37.127Z,12.90
2017-10-28T06:55:05.511Z,13.53
2017-10-28T06:57:33.869Z,13.40
2017-10-28T07:00:01.492Z,15.23
2017-10-28T07:02:29.085Z,14.57
2017-10-28T07:04:56.673Z,16.63
2017-10-28T07:07:25.064Z,13.87
2017-10-28T07:09:52.659Z,16.80
2017-10-28T07:12:20.504Z,14.87
2017-10-28T07:14:48.547Z,15.30
2017-10-28T07:17:16.895Z,13.97
2017-10-28T07:19:44.549Z,15.50
2017-10-28T07:22:12.217Z,15.90
2017-10-28T07:24:39.839Z,15.00
2017-10-28T07:27:07.419Z,15.60
2017-10-28T07:29:35.068Z,15.13
2017-10-28T07:32:02.690Z,16.07
2017-10-28T07:34:31.071Z,15.90
2017-10-28T07:36:59.431Z,15.57
2017-10-28T07:39:27.057Z,14.80
2017-10-28T07:41:54.720Z,14.37
2017-10-28T07:44:22.427Z,13.60
2017-10-28T07:46:50.037Z,14.80
2017-10-28T07:49:17.693Z,12.97
2017-10-28T07:51:45.303Z,13.33
2017-10-28T07:54:12.903Z,13.50
2017-10-28T07:56:40.501Z,13.00
2017-10-28T07:59:08.863Z,13.13
2017-10-28T08:01:36.491Z,12.70
2017-10-28T08:04:10.512Z,12.70
2017-10-28T08:06:38.133Z,12.60
2017-10-28T08:09:05.733Z,11.73
2017-10-28T08:11:34.105Z,11.70
2017-10-28T08:14:02.509Z,12.07
2017-10-28T08:16:30.091Z,11.07
2017-10-28T08:18:57.739Z,12.90
2017-10-28T08:21:25.346Z,11.37
2017-10-28T08:23:52.983Z,11.50
2017-10-28T08:26:20.560Z,12.30
2017-10-28T08:31:22.059Z,11.27
2017-10-28T08:33:50.411Z,11.60
2017-10-28T08:36:18.015Z,12.13
2017-10-28T08:38:46.398Z,11.83
2017-10-28T08:41:14.022Z,11.00
2017-10-28T08:43:41.604Z,12.50
2017-10-28T08:46:09.196Z,13.50
2017-10-28T08:48:36.815Z,12.07
2017-10-28T08:51:04.404Z,13.90
2017-10-28T08:53:32.811Z,13.27
2017-10-28T08:56:00.390Z,14.47
2017-10-28T08:58:28.057Z,11.47
2017-10-28T09:00:55.708Z,13.37
2017-10-28T09:03:23.342Z,13.77
2017-10-28T09:05:50.943Z,13.53
2017-10-28T09:08:18.558Z,13.67
2017-10-28T09:10:46.216Z,14.43
2017-10-28T09:13:13.820Z,14.50
2017-10-28T09:15:41.429Z,14.27
2017-10-28T09:18:09.785Z,13.87
2017-10-28T09:20:37.425Z,13.53
2017-10-28T09:23:04.998Z,13.27
2017-10-28T09:25:32.630Z,14.80
2017-10-28T09:28:00.234Z,13.77
2017-10-28T09:30:27.895Z,13.47
2017-10-28T09:32:55.556Z,13.23
2017-10-28T09:35:23.136Z,14.33
2017-10-28T09:37:51.524Z,14.40
2017-10-28T09:40:19.878Z,14.80
2017-10-28T09:42:47.568Z,14.67
2017-10-28T09:45:16.022Z,15.40
2017-10-28T09:47:43.623Z,15.03
2017-10-28T09:50:11.246Z,13.10
2017-10-28T09:52:38.847Z,13.30
2017-10-28T09:55:06.513Z,14.77
2017-10-28T09:57:34.118Z,12.30
2017-10-28T10:00:01.733Z,12.33
2017-10-28T10:02:30.158Z,14.47
2017-10-28T10:04:57.774Z,15.23
2017-10-28T10:07:26.166Z,14.83
2017-10-28T10:09:53.819Z,13.30
2017-10-28T10:12:21.408Z,12.40
2017-10-28T10:14:49.005Z,13.07
2017-10-28T10:17:16.610Z,13.23
2017-10-28T10:19:44.330Z,13.03
2017-10-28T10:22:11.918Z,13.60
2017-10-28T10:24:39.516Z,12.60
2017-10-28T10:27:07.133Z,14.13
2017-10-28T10:29:34.801Z,13.23
2017-10-28T10:32:03.188Z,11.60
2017-10-28T10:34:31.566Z,14.03
2017-10-28T10:37:00.078Z,13.27
2017-10-28T10:39:27.653Z,13.30
2017-10-28T10:41:55.271Z,13.83
2017-10-28T10:44:22.884Z,14.77
2017-10-28T10:46:50.486Z,15.87
2017-10-28T10:49:18.857Z,12.27
2017-10-28T10:51:46.639Z,13.40
2017-10-28T10:54:14.981Z,13.73
2017-10-28T10:56:42.587Z,12.30
2017-10-28T10:59:10.201Z,13.67
2017-10-28T11:01:37.797Z,14.33
2017-10-28T11:04:06.160Z,12.80
2017-10-28T11:06:34.118Z,13.13
2017-10-28T11:09:01.732Z,12.70
2017-10-28T11:11:29.330Z,14.23
2017-10-28T11:13:56.981Z,14.43
2017-10-28T11:16:24.566Z,13.00
2017-10-28T11:18:52.196Z,13.60
2017-10-28T11:21:19.790Z,15.53
2017-10-28T11:23:47.389Z,12.00
2017-10-28T11:26:16.230Z,14.13
2017-10-28T11:28:43.830Z,13.30
2017-10-28T11:31:12.224Z,14.80
2017-10-28T11:33:39.839Z,14.90
2017-10-28T11:36:07.464Z,14.50
2017-10-28T11:38:35.086Z,13.30
2017-10-28T11:41:02.707Z,13.37
2017-10-28T11:43:30.276Z,12.33
2017-10-28T11:45:57.918Z,12.57
2017-10-28T11:48:25.511Z,12.97
2017-10-28T11:50:53.114Z,13.20
2017-10-28T11:53:20.731Z,13.17
2017-10-28T11:55:48.329Z,14.83
2017-10-28T11:58:16.714Z,13.60
2017-10-28T12:00:44.308Z,13.10
2017-10-28T12:03:11.914Z,13.23
2017-10-28T12:05:39.519Z,12.97
2017-10-28T12:08:07.142Z,15.00
2017-10-28T12:10:35.496Z,13.77
2017-10-28T12:13:03.113Z,14.27
2017-10-28T12:15:30.703Z,13.20
2017-10-28T12:17:58.314Z,13.50
2017-10-28T12:20:26.823Z,13.90
2017-10-28T12:22:54.487Z,14.60
2017-10-28T12:25:22.850Z,14.53
2017-10-28T12:27:50.426Z,14.00
2017-10-28T12:30:18.038Z,12.87
2017-10-28T12:35:36.317Z,14.60
2017-10-28T12:38:03.951Z,15.30
2017-10-28T12:40:31.578Z,12.30
2017-10-28T12:42:59.161Z,15.03
2017-10-28T12:45:26.789Z,14.47
2017-10-28T12:47:54.386Z,13.87
2017-10-28T12:50:21.995Z,15.60
2017-10-28T12:52:49.757Z,13.30
2017-10-28T12:58:09.594Z,14.90
2017-10-28T13:00:37.175Z,14.10
2017-10-28T13:03:04.818Z,14.93
2017-10-28T13:05:32.415Z,15.10
2017-10-28T13:08:00.046Z,12.10
2017-10-28T13:30:25.352Z,13.87
2017-10-28T13:32:52.925Z,13.13
2017-10-28T13:35:21.330Z,14.63
2017-10-28T13:37:48.907Z,15.23
2017-10-28T13:40:16.547Z,14.30
2017-10-28T13:42:44.139Z,14.80
2017-10-28T13:45:11.775Z,14.27
2017-10-28T13:47:39.395Z,14.07
2017-10-28T13:50:07.047Z,12.20
2017-10-28T13:52:34.663Z,14.17
2017-10-28T13:55:02.271Z,13.93
2017-10-28T13:57:29.891Z,14.17
2017-10-28T13:59:57.571Z,13.03
2017-10-28T14:02:25.179Z,15.17
2017-10-28T14:04:53.549Z,13.07
2017-10-28T14:07:21.139Z,12.80
2017-10-28T14:09:48.768Z,13.63
2017-10-28T14:12:16.371Z,13.73
2017-10-28T14:14:44.002Z,14.07
2017-10-28T14:17:12.379Z,12.50
2017-10-28T14:19:39.980Z,12.67
2017-10-28T14:22:08.014Z,14.23
2017-10-28T14:24:37.019Z,13.23
2017-10-28T14:27:05.437Z,12.10
2017-10-28T14:29:33.085Z,13.57
2017-10-28T14:32:00.752Z,14.70
2017-10-28T14:34:28.430Z,12.60
2017-10-28T14:36:56.057Z,14.37
2017-10-28T14:39:24.567Z,13.83
2017-10-28T14:41:52.142Z,13.50
2017-10-28T14:44:19.700Z,12.80
2017-10-28T14:46:47.354Z,14.33
2017-10-28T14:49:15.003Z,14.87
2017-10-28T14:51:42.589Z,14.60
2017-10-28T14:54:10.256Z,15.27
2017-10-28T14:56:37.859Z,13.50
2017-10-28T14:59:06.420Z,14.40
2017-10-28T15:01:34.042Z,14.57
2017-10-28T15:04:01.629Z,15.63
2017-10-28T15:06:29.239Z,14.37
2017-10-28T15:08:57.868Z,16.30
2017-10-28T15:11:28.144Z,17.33
2017-10-28T15:13:56.699Z,14.63
2017-10-28T15:16:26.450Z,17.20
2017-10-28T15:18:54.175Z,17.67
2017-10-28T15:21:21.877Z,18.47
2017-10-28T15:23:50.874Z,19.10
2017-10-28T15:26:18.617Z,16.63
2017-10-28T15:28:47.230Z,18.20
2017-10-28T15:31:14.954Z,18.20
2017-10-28T15:33:42.696Z,17.87
2017-10-28T15:36:10.371Z,17.60
2017-10-28T15:38:37.961Z,18.87
2017-10-28T15:41:06.346Z,18.00
2017-10-28T15:43:33.980Z,18.57
2017-10-28T15:46:01.595Z,19.20
2017-10-28T15:48:29.236Z,18.90
2017-10-28T15:50:57.631Z,19.43
2017-10-28T15:53:25.195Z,19.20
2017-10-28T15:55:52.823Z,19.90
2017-10-28T15:58:21.149Z,19.37
2017-10-28T16:00:48.813Z,21.00
2017-10-28T16:03:16.396Z,19.30
2017-10-28T16:05:44.037Z,19.63
2017-10-28T16:08:11.623Z,19.33
2017-10-28T16:10:39.759Z,20.83
2017-10-28T16:13:07.358Z,18.87
2017-10-28T16:15:34.972Z,19.00
2017-10-28T16:18:02.629Z,19.93
2017-10-28T16:20:30.609Z,19.03
2017-10-28T16:22:58.253Z,19.43
2017-10-28T16:25:26.616Z,19.97
2017-10-28T16:27:54.336Z,19.43
2017-10-28T16:30:21.940Z,19.17
2017-10-28T16:32:49.556Z,20.23
2017-10-28T16:35:17.141Z,20.50
2017-10-28T16:37:44.770Z,19.30
2017-10-28T16:40:12.364Z,21.17
2017-10-28T16:42:39.998Z,20.83
2017-10-28T16:45:08.446Z,18.90
2017-10-28T16:47:36.839Z,19.67
2017-10-28T16:50:04.403Z,21.00
2017-10-28T16:52:31.972Z,23.27
2017-10-28T16:54:59.551Z,22.00
2017-10-28T16:57:27.157Z,21.20
2017-10-28T16:59:54.774Z,19.40
2017-10-28T17:02:22.352Z,17.00
2017-10-28T17:04:49.987Z,18.80
2017-10-28T17:07:17.586Z,17.90
2017-10-28T17:09:45.355Z,18.50
2017-10-28T17:12:12.931Z,18.13
2017-10-28T17:14:40.569Z,17.90
2017-10-28T17:17:08.191Z,14.17
2017-10-28T17:19:35.798Z,17.63
2017-10-28T17:22:03.436Z,19.80
2017-10-28T17:24:31.016Z,18.50
2017-10-28T17:26:58.640Z,16.47
2017-10-28T17:29:26.239Z,17.50
2017-10-28T17:31:53.854Z,18.50
2017-10-28T17:34:22.228Z,17.80
2017-10-28T17:36:49.842Z,17.80
2017-10-28T17:39:17.444Z,18.67
2017-10-28T17:41:45.810Z,17.27
2017-10-28T17:44:14.262Z,17.13
2017-10-28T17:46:41.909Z,18.00
2017-10-28T17:49:10.246Z,15.80
2017-10-28T17:51:38.644Z,13.27
2017-10-28T17:54:06.245Z,17.17
2017-10-28T17:56:33.839Z,17.80
2017-10-28T17:59:02.290Z,14.77
2017-10-28T18:01:29.888Z,14.90
2017-10-28T18:03:58.318Z,17.67
2017-10-28T18:06:25.934Z,17.83
2017-10-28T18:08:53.566Z,17.27
2017-10-28T18:11:21.191Z,15.73
2017-10-28T18:13:49.580Z,14.60
2017-10-28T18:16:17.850Z,16.10
2017-10-28T18:18:45.439Z,16.73
2017-10-28T18:21:13.061Z,13.70
2017-10-28T18:23:40.663Z,15.63
2017-10-28T18:26:08.387Z,14.43
2017-10-28T18:28:36.555Z,12.87
2017-10-28T18:31:04.204Z,15.27
2017-10-28T18:33:32.668Z,16.17
2017-10-28T18:36:00.397Z,15.50
2017-10-28T18:38:28.009Z,15.20
2017-10-28T18:40:55.666Z,15.00
2017-10-28T18:43:24.045Z,14.67
2017-10-28T18:45:52.426Z,15.40
2017-10-28T18:48:20.817Z,15.07
2017-10-28T18:50:49.191Z,17.33
2017-10-28T18:53:17.607Z,14.60
2017-10-28T18:55:45.263Z,16.17
2017-10-28T18:58:12.878Z,15.50
2017-10-28T19:00:41.255Z,17.77
2017-10-28T19:03:08.867Z,16.17
2017-10-28T19:05:36.457Z,15.57
2017-10-28T19:08:04.238Z,16.20
2017-10-28T19:10:31.877Z,14.90
2017-10-28T19:12:59.494Z,15.10
2017-10-28T19:15:27.899Z,13.43
2017-10-28T19:17:55.571Z,13.93
2017-10-28T19:20:23.217Z,10.50
2017-10-28T19:22:50.839Z,14.43
2017-10-28T19:25:18.424Z,15.67
2017-10-28T19:27:46.810Z,12.87
2017-10-28T19:30:14.442Z,12.00
2017-10-28T19:32:42.074Z,13.13
2017-10-28T19:35:09.715Z,14.27
2017-10-28T19:37:37.316Z,13.67
2017-10-28T19:40:04.934Z,14.00
2017-10-28T19:42:32.640Z,11.37
2017-10-28T19:45:01.035Z,14.10
2017-10-28T19:47:29.476Z,12.70
2017-10-28T19:49:57.073Z,11.50
2017-10-28T19:52:24.716Z,11.50
2017-10-28T19:54:52.308Z,11.23
2017-10-28T19:57:20.720Z,12.07
2017-10-28T19:59:48.690Z,13.50
2017-10-28T20:02:16.281Z,11.93
2017-10-28T20:04:43.917Z,13.20
2017-10-28T20:07:11.755Z,13.90
2017-10-28T20:09:40.152Z,13.10
2017-10-28T20:12:07.746Z,13.93
2017-10-28T20:14:36.552Z,12.30
2017-10-28T20:17:04.277Z,12.53
2017-10-28T20:19:31.867Z,13.40
2017-10-28T20:21:59.483Z,13.63
2017-10-28T20:24:27.119Z,13.63
2017-10-28T20:26:54.738Z,13.60
2017-10-28T20:29:22.350Z,13.57
2017-10-28T20:31:51.094Z,15.17
2017-10-28T20:34:18.734Z,15.73
2017-10-28T20:36:46.458Z,15.00
2017-10-28T20:39:14.078Z,13.43
2017-10-28T20:41:41.707Z,14.33
2017-10-28T20:44:09.338Z,14.10
2017-10-28T20:46:36.999Z,12.60
2017-10-28T20:49:04.752Z,13.60
2017-10-28T20:51:32.393Z,13.07
2017-10-28T20:54:00.016Z,13.77
2017-10-28T20:56:27.666Z,12.67
2017-10-28T20:58:55.261Z,14.20
2017-10-28T21:01:22.942Z,12.13
2017-10-28T21:03:50.595Z,10.97
2017-10-28T21:06:18.236Z,12.30
2017-10-28T21:08:46.618Z,13.30
2017-10-28T21:11:14.292Z,10.80
2017-10-28T21:13:41.900Z,11.70
2017-10-28T21:16:09.551Z,11.20
2017-10-28T21:18:37.200Z,10.90
2017-10-28T21:21:04.840Z,11.00
2017-10-28T21:23:32.442Z,11.43
2017-10-28T21:26:00.056Z,11.43
2017-10-28T21:28:27.667Z,11.10
2017-10-28T21:30:55.293Z,10.93
2017-10-28T21:33:22.977Z,11.60
2017-10-28T21:35:50.631Z,9.50
2017-10-28T21:38:18.236Z,12.53
2017-10-28T21:40:45.829Z,11.90
2017-10-28T21:43:13.431Z,12.23
2017-10-28T21:45:41.076Z,10.80
2017-10-28T21:48:08.678Z,11.87
2017-10-28T21:50:36.355Z,13.90
2017-10-28T21:53:04.726Z,14.53
2017-10-28T21:55:32.384Z,13.90
2017-10-28T21:57:59.975Z,14.20
2017-10-28T22:00:27.607Z,13.67
2017-10-28T22:02:55.279Z,12.90
2017-10-28T22:05:22.911Z,13.53
2017-10-28T22:07:50.543Z,12.43
2017-10-28T22:10:18.235Z,10.10
2017-10-28T22:12:46.599Z,13.80
2017-10-28T22:15:14.218Z,12.60
2017-10-28T22:17:42.639Z,11.10
2017-10-28T22:20:10.285Z,10.57
2017-10-28T22:22:37.887Z,11.77
2017-10-28T22:25:05.468Z,8.80
2017-10-28T22:27:33.132Z,11.97
2017-10-28T22:30:00.723Z,13.33
2017-10-28T22:32:28.306Z,12.07
2017-10-28T22:34:55.925Z,11.77
2017-10-28T22:37:24.310Z,12.73
2017-10-28T22:39:52.748Z,12.47
2017-10-28T22:42:20.371Z,13.63
2017-10-28T22:44:48.051Z,14.87
2017-10-28T22:47:15.670Z,13.57
2017-10-28T22:49:43.767Z,12.83
2017-10-28T22:52:11.396Z,11.30
2017-10-28T22:54:39.063Z,12.70
2017-10-28T22:57:06.656Z,13.40
2017-10-28T22:59:34.293Z,12.37
2017-10-28T23:02:02.681Z,13.30
2017-10-28T23:04:31.081Z,15.30
2017-10-28T23:06:59.470Z,13.70
2017-10-28T23:09:27.104Z,14.20
2017-10-28T23:11:55.487Z,13.07
2017-10-28T23:14:24.206Z,12.87
2017-10-28T23:16:52.609Z,13.83
2017-10-28T23:19:20.336Z,14.47
2017-10-28T23:21:47.950Z,14.37
2017-10-28T23:24:15.643Z,14.30
2017-10-28T23:26:44.013Z,14.90
2017-10-28T23:29:12.400Z,14.40
2017-10-28T23:31:40.803Z,15.87
2017-10-28T23:34:08.379Z,16.33
2017-10-28T23:36:35.995Z,18.60
2017-10-28T23:39:04.352Z,17.23
2017-10-28T23:41:31.963Z,15.43
2017-10-28T23:43:59.543Z,14.50
2017-10-28T23:46:27.134Z,12.70
2017-10-28T23:48:54.835Z,13.10
2017-10-28T23:51:22.426Z,12.57
2017-10-28T23:53:50.044Z,11.90
2017-10-28T23:56:18.399Z,12.23
2017-10-28T23:58:46.034Z,12.10
